Time;durP1;ratioP1;P1;durP2;ratioP2;P2;SDS_P1;SDS_P2;PMS_P1;PMS_P2;Temp;Humidity;BMP_temperature;BMP_pressure;BME280_temperature;BME280_humidity;BME280_pressure;Samples;Min_cycle;Max_cycle;Signal;HPM_P1;HPM_P2
2023/01/21 00:01:13;;;;;;;;;17.25;11.50;;;;;7.97;60.54;101607.00;5079388;27;45426;-60
2023/01/21 00:03:39;;;;;;;;;21.00;16.00;;;;;8.03;60.76;101623.28;5074830;27;45361;-62
2023/01/21 00:06:04;;;;;;;;;11.50;6.00;;;;;7.43;60.52;101513.84;5073258;27;47112;-60
2023/01/21 00:08:30;;;;;;;;;10.25;9.50;;;;;8.03;60.69;101634.81;5074154;27;45290;-60
2023/01/21 00:10:55;;;;;;;;;13.25;9.00;;;;;7.78;60.91;101611.38;5074388;27;45440;-60
2023/01/21 00:13:21;;;;;;;;;22.00;17.75;;;;;7.91;62.20;101613.84;5090627;27;45467;-60
2023/01/21 00:15:46;;;;;;;;;13.00;13.00;;;;;8.00;61.46;101623.13;5093954;27;46271;-60
2023/01/21 00:18:12;;;;;;;;;13.00;11.00;;;;;8.00;61.27;101621.38;5093672;27;48951;-60
2023/01/21 00:20:37;;;;;;;;;19.75;12.50;;;;;7.95;61.52;101622.88;5093881;27;45526;-61
2023/01/21 00:23:03;;;;;;;;;27.25;25.00;;;;;7.92;60.67;101623.66;5075592;27;45576;-59
2023/01/21 00:25:29;;;;;;;;;32.25;28.25;;;;;7.96;61.70;101631.78;5073660;27;47129;-60
2023/01/21 00:27:54;;;;;;;;;38.25;31.00;;;;;7.99;61.33;101627.53;5093530;27;45502;-61
2023/01/21 00:30:20;;;;;;;;;15.50;12.25;;;;;7.95;61.08;101617.56;5094494;27;45407;-61
2023/01/21 00:32:45;;;;;;;;;12.75;11.50;;;;;7.99;61.36;101632.84;5097417;27;45434;-59
2023/01/21 00:35:10;;;;;;;;;19.50;15.25;;;;;7.94;61.31;101626.41;5097321;27;45988;-61
2023/01/21 00:37:36;;;;;;;;;11.25;7.25;;;;;7.62;61.00;101585.72;5098088;27;45300;-61
2023/01/21 00:40:01;;;;;;;;;11.50;10.00;;;;;7.88;61.72;101642.03;5097389;27;46871;-62
2023/01/21 00:42:27;;;;;;;;;36.25;29.00;;;;;7.94;62.27;101639.69;5062583;27;45580;-59
2023/01/21 00:44:53;;;;;;;;;16.00;12.50;;;;;7.97;61.43;101646.91;5097905;27;46075;-61
2023/01/21 00:47:18;;;;;;;;;19.75;15.75;;;;;7.86;61.64;101626.00;5097701;27;45593;-62
2023/01/21 00:49:44;;;;;;;;;16.25;8.50;;;;;7.97;61.11;101653.16;5096283;27;45424;-61
2023/01/21 00:52:09;;;;;;;;;6.50;6.50;;;;;7.95;60.85;101654.81;5096797;27;45517;-61
2023/01/21 00:54:34;;;;;;;;;11.00;8.75;;;;;7.06;60.98;101507.53;5095347;27;45592;-61
2023/01/21 00:57:00;;;;;;;;;20.00;17.50;;;;;7.71;62.59;101620.78;5093819;27;53411;-61
2023/01/21 00:59:28;;;;;;;;;23.25;18.50;;;;;7.78;61.36;101637.06;5097495;27;45509;-61
2023/01/21 01:01:54;;;;;;;;;7.75;5.00;;;;;7.92;61.55;101667.97;5094828;27;45429;-63
2023/01/21 01:04:19;;;;;;;;;8.75;8.75;;;;;7.95;61.98;101676.09;5096785;27;45484;-62
2023/01/21 01:06:45;;;;;;;;;16.25;14.50;;;;;8.00;61.43;101671.00;5093362;27;45546;-61
2023/01/21 01:09:11;;;;;;;;;12.50;9.00;;;;;7.98;61.62;101664.72;5079305;27;45277;-60
2023/01/21 01:11:37;;;;;;;;;43.50;34.50;;;;;7.94;61.60;101653.00;5095701;27;45315;-64
2023/01/21 01:14:02;;;;;;;;;10.75;8.00;;;;;7.95;60.87;101662.78;5096360;27;46231;-60
2023/01/21 01:16:27;;;;;;;;;10.00;10.00;;;;;8.03;61.07;101671.19;5097100;27;45655;-61
2023/01/21 01:18:54;;;;;;;;;5.00;5.00;;;;;7.12;60.97;101518.47;5078276;27;54996;-60
2023/01/21 01:21:20;;;;;;;;;6.75;6.25;;;;;7.97;61.15;101689.47;5096968;27;45529;-60
2023/01/21 01:23:47;;;;;;;;;4.25;3.25;;;;;7.95;60.67;101684.06;5096372;27;45484;-60
2023/01/21 01:26:15;;;;;;;;;5.50;5.00;;;;;7.93;60.91;101688.41;5096238;27;45582;-60
2023/01/21 01:28:41;;;;;;;;;10.00;7.00;;;;;7.86;61.28;101687.19;5095927;27;45417;-61
2023/01/21 01:31:10;;;;;;;;;13.50;9.00;;;;;7.90;60.91;101697.16;5097304;27;45567;-61
2023/01/21 01:33:35;;;;;;;;;6.50;6.00;;;;;7.82;60.99;101682.56;5090102;27;47323;-59
2023/01/21 01:36:06;;;;;;;;;11.50;9.00;;;;;7.92;61.00;101697.25;5095793;27;59502;-60
2023/01/21 01:38:33;;;;;;;;;12.75;9.00;;;;;7.96;61.39;101693.00;5096571;27;45481;-59
2023/01/21 01:40:59;;;;;;;;;12.50;8.25;;;;;7.96;60.64;101704.53;5078301;27;45672;-59
2023/01/21 01:43:46;;;;;;;;;12.75;11.00;;;;;7.88;60.25;101696.16;5100170;27;46031;-60
2023/01/21 01:46:11;;;;;;;;;11.75;10.50;;;;;7.84;59.63;101704.81;5086635;27;45368;-60
2023/01/21 01:48:37;;;;;;;;;11.50;11.25;;;;;7.79;60.36;101700.06;5080348;27;45622;-59
2023/01/21 01:51:06;;;;;;;;;16.00;11.00;;;;;7.88;59.17;101722.75;5099462;27;45344;-59
2023/01/21 01:53:34;;;;;;;;;11.75;11.75;;;;;7.85;59.80;101711.97;5098972;27;45917;-59
2023/01/21 01:56:00;;;;;;;;;20.00;15.50;;;;;7.89;59.51;101726.34;5097986;27;45396;-60
2023/01/21 01:58:29;;;;;;;;;14.00;10.75;;;;;7.93;58.69;101729.22;5097564;27;45339;-59
2023/01/21 02:00:54;;;;;;;;;20.00;12.75;;;;;7.80;57.16;101731.16;5093891;27;45546;-60
2023/01/21 02:06:03;;;;;;;;;15.00;10.25;;;;;7.86;57.95;101747.47;5096186;27;45501;-59
2023/01/21 02:08:31;;;;;;;;;12.50;12.50;;;;;7.86;57.81;101761.69;5096713;27;45591;-59
2023/01/21 02:10:57;;;;;;;;;16.50;13.50;;;;;7.85;57.73;101746.56;5098126;27;45269;-60
2023/01/21 02:13:30;;;;;;;;;18.75;11.75;;;;;7.79;58.15;101730.28;5095140;27;46103;-60
2023/01/21 02:16:02;;;;;;;;;16.75;12.75;;;;;7.89;57.86;101758.28;5095112;27;45314;-60
2023/01/21 02:18:44;;;;;;;;;15.25;13.25;;;;;7.88;57.18;101775.97;5089629;27;45591;-58
2023/01/21 02:21:40;;;;;;;;;11.50;11.50;;;;;7.87;56.73;101773.22;5096370;27;45405;-60
2023/01/21 02:24:35;;;;;;;;;15.00;11.75;;;;;7.75;57.68;101757.53;5095417;27;46057;-59
2023/01/21 02:27:31;;;;;;;;;11.75;10.50;;;;;7.78;56.57;101759.44;5092048;27;45455;-61
2023/01/21 02:30:18;;;;;;;;;11.75;10.25;;;;;7.81;55.89;101788.88;5095621;27;45711;-60
2023/01/21 02:33:14;;;;;;;;;11.25;11.25;;;;;7.76;54.63;101796.59;5078420;27;45660;-60
2023/01/21 02:35:54;;;;;;;;;17.00;10.00;;;;;7.75;55.03;101805.41;5088713;27;45564;-61
2023/01/21 02:38:57;;;;;;;;;11.75;10.50;;;;;7.73;55.09;101818.63;5070201;27;46100;-60
2023/01/21 02:41:53;;;;;;;;;8.50;7.25;;;;;7.57;54.54;101832.84;5077341;27;45522;-60
2023/01/21 02:44:37;;;;;;;;;11.75;11.75;;;;;7.65;55.25;101835.00;5094502;27;45413;-60
2023/01/21 02:47:36;;;;;;;;;12.25;10.50;;;;;7.57;55.45;101843.47;5095440;27;45674;-61
2023/01/21 02:50:07;;;;;;;;;13.75;11.00;;;;;7.57;55.53;101850.50;5094826;27;45240;-61
2023/01/21 02:52:33;;;;;;;;;13.75;12.00;;;;;7.54;55.61;101853.94;5093746;27;45518;-59
2023/01/21 02:55:00;;;;;;;;;18.50;13.00;;;;;7.39;55.23;101831.78;5094892;27;45557;-62
2023/01/21 02:57:41;;;;;;;;;12.25;12.25;;;;;7.51;55.10;101859.06;5093015;27;45578;-61
2023/01/21 03:00:16;;;;;;;;;15.25;10.00;;;;;7.48;53.90;101866.88;5095046;27;45683;-59
2023/01/21 03:03:03;;;;;;;;;16.75;12.75;;;;;7.35;53.93;101867.91;5091233;27;45483;-60
2023/01/21 03:05:52;;;;;;;;;22.50;15.75;;;;;7.34;54.26;101881.09;5094635;27;45389;-61
2023/01/21 03:08:26;;;;;;;;;15.75;12.00;;;;;7.35;53.58;101880.28;5093337;27;46289;-61
2023/01/21 03:11:16;;;;;;;;;18.50;15.00;;;;;7.30;54.17;101871.13;5094544;27;45418;-60
2023/01/21 03:16:58;;;;;;;;;17.25;13.00;;;;;7.34;53.74;101887.38;5095245;27;45452;-59
2023/01/21 03:19:48;;;;;;;;;18.00;16.00;;;;;7.28;53.38;101907.34;5094260;27;45516;-59
2023/01/21 03:22:21;;;;;;;;;22.00;20.50;;;;;7.20;53.57;101915.78;5093355;27;45361;-59
2023/01/21 03:24:51;;;;;;;;;15.75;15.50;;;;;7.03;52.54;101887.31;5094356;27;45366;-59
2023/01/21 03:27:22;;;;;;;;;11.50;10.75;;;;;7.08;51.59;101906.16;5094866;27;45446;-59
2023/01/21 03:29:55;;;;;;;;;12.50;11.25;;;;;6.96;51.67;101920.56;5095630;27;46808;-61
2023/01/21 03:32:22;;;;;;;;;19.75;15.00;;;;;6.83;51.21;101924.22;5097372;27;45424;-60
2023/01/21 03:34:52;;;;;;;;;24.25;22.50;;;;;6.80;51.27;101918.72;5095914;27;45364;-62
2023/01/21 03:37:26;;;;;;;;;17.25;15.25;;;;;6.80;51.55;101933.75;5093361;27;45643;-60
2023/01/21 03:40:22;;;;;;;;;20.75;16.25;;;;;6.80;51.45;101942.63;5075060;27;46687;-60
2023/01/21 03:42:55;;;;;;;;;15.50;14.25;;;;;6.62;51.79;101918.53;5093050;27;45504;-60
2023/01/21 03:45:49;;;;;;;;;18.00;15.00;;;;;6.86;52.02;101954.44;5094141;27;45358;-59
2023/01/21 03:48:20;;;;;;;;;18.00;15.75;;;;;6.90;52.17;101954.75;5089918;27;45410;-59
2023/01/21 03:50:55;;;;;;;;;16.75;15.00;;;;;6.92;51.83;101957.50;5091706;27;46807;-61
2023/01/21 03:53:21;;;;;;;;;17.25;15.50;;;;;6.87;51.68;101943.00;5092274;27;45425;-60
2023/01/21 03:55:49;;;;;;;;;23.50;16.25;;;;;6.79;50.48;101938.13;5092773;27;45435;-61
2023/01/21 03:58:14;;;;;;;;;17.50;15.50;;;;;6.83;51.28;101953.44;5091752;27;45419;-61
2023/01/21 04:00:39;;;;;;;;;21.75;17.75;;;;;6.74;51.08;101936.94;5093835;27;55148;-60
2023/01/21 04:03:05;;;;;;;;;22.25;20.75;;;;;6.79;51.41;101951.41;5094298;27;48986;-60
2023/01/21 04:05:30;;;;;;;;;20.75;16.00;;;;;6.78;51.41;101954.91;5095080;27;45528;-60
2023/01/21 04:07:55;;;;;;;;;21.75;17.75;;;;;6.67;51.27;101936.50;5098210;27;45461;-60
2023/01/21 04:10:21;;;;;;;;;22.25;16.75;;;;;6.65;51.15;101949.69;5099242;27;46785;-60
2023/01/21 04:12:46;;;;;;;;;16.25;16.25;;;;;6.71;51.41;101965.06;5098404;27;45484;-60
2023/01/21 04:15:11;;;;;;;;;25.50;21.00;;;;;6.70;50.92;101969.47;5093123;27;45441;-59
2023/01/21 04:17:37;;;;;;;;;18.50;16.25;;;;;6.67;51.11;101969.28;5093083;27;45538;-61
2023/01/21 04:20:03;;;;;;;;;22.75;18.50;;;;;6.55;51.22;101957.88;5099519;27;46300;-60
2023/01/21 04:22:28;;;;;;;;;30.25;26.75;;;;;6.67;51.67;101986.94;5100978;27;45606;-60
2023/01/21 04:24:53;;;;;;;;;21.50;19.75;;;;;6.71;51.19;101975.69;5099512;27;45342;-60
2023/01/21 04:27:18;;;;;;;;;17.00;16.75;;;;;6.73;50.71;101985.59;5100043;27;45361;-61
2023/01/21 04:29:44;;;;;;;;;23.25;20.75;;;;;6.70;50.88;101982.75;5099987;27;45386;-60
2023/01/21 04:32:09;;;;;;;;;22.75;19.25;;;;;6.71;50.98;101987.22;5100533;27;45550;-60
2023/01/21 04:34:34;;;;;;;;;26.50;20.25;;;;;6.59;50.16;101978.50;5098531;27;46195;-60
2023/01/21 04:37:00;;;;;;;;;18.25;16.50;;;;;6.61;50.70;101990.13;5099533;27;45565;-61
2023/01/21 04:39:25;;;;;;;;;22.50;19.50;;;;;6.45;50.83;101967.94;5098297;27;46231;-61
2023/01/21 04:41:50;;;;;;;;;17.25;12.50;;;;;6.56;51.06;101980.97;5098204;27;51332;-60
2023/01/21 04:44:16;;;;;;;;;25.25;19.25;;;;;6.54;50.68;101991.47;5097129;27;45543;-62
2023/01/21 04:46:41;;;;;;;;;22.25;20.25;;;;;6.53;51.22;101986.06;5097775;27;45447;-59
2023/01/21 04:49:06;;;;;;;;;20.75;15.50;;;;;6.49;51.34;101987.63;5098163;27;45474;-61
2023/01/21 04:51:32;;;;;;;;;23.25;22.00;;;;;6.35;51.09;101972.56;5098702;27;45710;-59
2023/01/21 04:53:57;;;;;;;;;17.25;17.25;;;;;6.38;51.04;101978.97;5079145;27;45385;-59
2023/01/21 04:56:22;;;;;;;;;21.50;16.75;;;;;6.39;51.32;101993.19;5078957;27;45364;-60
2023/01/21 04:58:47;;;;;;;;;25.50;21.00;;;;;6.38;51.44;101999.28;5096466;27;56815;-61
2023/01/21 05:01:13;;;;;;;;;18.50;16.50;;;;;6.37;51.09;102001.03;5096050;27;45655;-60
2023/01/21 05:03:38;;;;;;;;;23.00;21.00;;;;;6.34;51.46;102000.84;5074702;28;45352;-59
2023/01/21 05:06:03;;;;;;;;;24.75;16.50;;;;;6.21;50.92;101987.63;5097223;27;45316;-62
2023/01/21 05:08:29;;;;;;;;;17.50;15.75;;;;;6.04;51.05;101973.28;5097454;27;46334;-59
2023/01/21 05:10:54;;;;;;;;;23.50;17.50;;;;;5.93;51.33;101966.31;5097571;27;44801;-59
2023/01/21 05:13:19;;;;;;;;;25.25;16.50;;;;;6.07;51.80;102006.22;5078258;27;45963;-59
2023/01/21 05:15:45;;;;;;;;;20.00;16.00;;;;;6.00;51.68;102001.31;5096398;27;45398;-60
2023/01/21 05:18:11;;;;;;;;;21.75;20.00;;;;;5.96;52.18;101993.06;5096025;27;47401;-58
2023/01/21 05:20:37;;;;;;;;;25.75;20.00;;;;;5.96;51.89;102014.28;5097263;27;45576;-59
2023/01/21 05:23:02;;;;;;;;;22.50;16.75;;;;;5.94;52.52;102003.56;5097051;27;45289;-59
2023/01/21 05:25:28;;;;;;;;;24.75;24.75;;;;;6.00;51.94;102016.31;5097184;27;45420;-59
2023/01/21 05:27:54;;;;;;;;;21.25;16.75;;;;;5.97;51.58;102013.47;5093444;27;45398;-59
2023/01/21 05:30:20;;;;;;;;;25.50;18.75;;;;;5.96;51.88;102017.88;5078158;27;45326;-60
2023/01/21 05:32:54;;;;;;;;;19.75;18.50;;;;;5.94;51.83;102024.78;5096049;27;45662;-59
2023/01/21 05:35:21;;;;;;;;;21.75;19.50;;;;;5.84;52.42;102017.00;5096816;27;45497;-60
2023/01/21 05:37:46;;;;;;;;;28.25;20.00;;;;;5.81;51.76;102009.78;5096291;27;45416;-60
2023/01/21 05:40:16;;;;;;;;;24.75;21.50;;;;;5.82;52.53;102027.50;5096137;27;45333;-60
2023/01/21 05:42:42;;;;;;;;;26.75;19.25;;;;;5.83;52.37;102025.81;5096333;27;45519;-60
2023/01/21 05:45:07;;;;;;;;;23.00;23.00;;;;;5.81;52.45;102046.91;5096726;27;45314;-61
2023/01/21 05:47:33;;;;;;;;;27.00;16.25;;;;;5.52;52.90;101986.63;5095229;27;45540;-60
2023/01/21 05:49:58;;;;;;;;;22.50;19.00;;;;;5.69;52.81;102035.47;5096081;27;45480;-60
2023/01/21 05:52:24;;;;;;;;;23.75;20.25;;;;;5.72;53.00;102044.56;5096211;27;45298;-61
2023/01/21 05:54:49;;;;;;;;;21.50;18.50;;;;;5.68;53.30;102053.13;5096846;27;45313;-61
2023/01/21 05:57:14;;;;;;;;;24.25;19.00;;;;;5.66;53.52;102056.47;5092825;27;46477;-61
2023/01/21 05:59:39;;;;;;;;;21.25;19.25;;;;;5.53;53.90;102030.91;5096284;27;45318;-60
2023/01/21 06:02:05;;;;;;;;;24.25;19.25;;;;;5.63;53.94;102054.56;5095762;27;51579;-60
2023/01/21 06:04:30;;;;;;;;;21.00;19.75;;;;;5.58;54.04;102055.97;5095729;27;45387;-59
2023/01/21 06:06:56;;;;;;;;;23.75;18.50;;;;;5.55;54.05;102066.38;5091997;27;46104;-60
2023/01/21 06:09:22;;;;;;;;;26.00;20.00;;;;;5.56;53.81;102060.25;5099246;27;45379;-61
2023/01/21 06:11:47;;;;;;;;;27.75;21.25;;;;;5.59;54.31;102067.50;5103406;27;45394;-61
2023/01/21 06:14:12;;;;;;;;;23.50;17.75;;;;;5.57;54.29;102063.81;5098574;27;45256;-59
2023/01/21 06:16:38;;;;;;;;;40.50;27.00;;;;;5.47;54.58;102049.03;5096107;27;46388;-59
2023/01/21 06:19:03;;;;;;;;;22.75;21.00;;;;;5.59;54.59;102072.78;5099416;27;46505;-62
2023/01/21 06:21:28;;;;;;;;;25.25;22.75;;;;;5.33;54.10;102026.91;5097645;27;45418;-60
2023/01/21 06:23:54;;;;;;;;;24.00;21.75;;;;;5.42;54.30;102050.44;5096881;27;45565;-60
2023/01/21 06:26:19;;;;;;;;;24.50;21.25;;;;;5.54;54.06;102076.06;5095396;27;46472;-61
2023/01/21 06:28:44;;;;;;;;;34.50;26.75;;;;;5.57;54.42;102074.44;5095723;27;45292;-60
2023/01/21 06:31:10;;;;;;;;;33.00;27.25;;;;;5.27;54.49;102031.78;5094116;27;56767;-61
2023/01/21 06:33:35;;;;;;;;;26.00;24.50;;;;;5.47;54.51;102092.34;5096532;27;45294;-61
2023/01/21 06:36:00;;;;;;;;;32.50;22.50;;;;;5.49;54.58;102090.75;5095393;27;45477;-60
2023/01/21 06:38:26;;;;;;;;;24.75;24.50;;;;;5.43;55.03;102074.41;5093691;27;45403;-60
2023/01/21 06:40:51;;;;;;;;;29.50;24.75;;;;;5.53;54.50;102090.13;5077516;27;45429;-60
2023/01/21 06:43:16;;;;;;;;;33.75;25.75;;;;;5.47;54.40;102084.38;5097368;27;45183;-60
2023/01/21 06:45:42;;;;;;;;;37.25;24.50;;;;;5.52;54.42;102090.91;5097292;27;47447;-59
2023/01/21 06:48:08;;;;;;;;;33.25;25.25;;;;;5.51;54.73;102097.06;5096742;27;45359;-61
2023/01/21 06:50:33;;;;;;;;;25.25;24.25;;;;;5.37;54.76;102084.59;5096770;27;45354;-61
2023/01/21 06:52:58;;;;;;;;;34.75;25.00;;;;;5.40;54.58;102119.25;5096469;27;45277;-60
2023/01/21 06:55:24;;;;;;;;;31.50;21.75;;;;;5.04;54.58;102056.69;5095630;27;58848;-60
2023/01/21 06:57:49;;;;;;;;;27.50;27.50;;;;;5.37;55.55;102118.13;5095751;27;45516;-59
2023/01/21 07:00:15;;;;;;;;;45.00;31.50;;;;;5.40;55.41;102116.59;5095620;27;45546;-60
2023/01/21 07:02:40;;;;;;;;;31.25;26.00;;;;;5.39;55.19;102111.19;5095594;27;45416;-59
2023/01/21 07:05:06;;;;;;;;;33.50;27.50;;;;;5.45;54.88;102123.13;5092332;27;45508;-60
2023/01/21 07:07:31;;;;;;;;;38.00;32.25;;;;;5.42;55.18;102128.22;5092856;27;45513;-61
2023/01/21 07:09:57;;;;;;;;;29.25;22.00;;;;;5.43;55.85;102129.13;5090963;27;45464;-62
2023/01/21 07:12:22;;;;;;;;;37.75;27.50;;;;;5.42;55.46;102143.22;5092734;27;45474;-61
2023/01/21 07:14:47;;;;;;;;;38.25;32.50;;;;;5.40;55.34;102147.50;5095418;27;45976;-62
2023/01/21 07:17:13;;;;;;;;;31.00;27.75;;;;;5.25;55.24;102116.44;5098430;27;45286;-60
2023/01/21 07:19:38;;;;;;;;;37.75;25.00;;;;;5.37;55.13;102155.22;5099796;27;45361;-60
2023/01/21 07:22:04;;;;;;;;;30.75;29.75;;;;;5.31;55.46;102155.69;5095895;27;45472;-59
2023/01/21 07:24:29;;;;;;;;;44.25;31.50;;;;;5.29;55.56;102162.63;5077664;27;46173;-60
2023/01/21 07:26:55;;;;;;;;;42.00;35.25;;;;;4.45;55.95;102012.84;5095771;27;45402;-60
2023/01/21 07:29:22;;;;;;;;;46.50;38.25;;;;;5.33;55.84;102167.34;5095527;27;45792;-60
2023/01/21 07:31:47;;;;;;;;;43.25;32.25;;;;;5.25;55.89;102153.56;5095012;27;45415;-60
2023/01/21 07:34:13;;;;;;;;;38.25;32.50;;;;;5.27;56.48;102161.59;5076740;27;47855;-59
2023/01/21 07:36:38;;;;;;;;;55.25;39.25;;;;;5.23;55.74;102167.47;5094600;27;45286;-61
2023/01/21 07:39:03;;;;;;;;;39.00;32.75;;;;;5.30;56.16;102194.53;5094563;27;45350;-61
2023/01/21 07:41:29;;;;;;;;;50.25;36.00;;;;;5.25;56.31;102179.13;5093143;27;45671;-60
2023/01/21 07:43:54;;;;;;;;;47.25;36.50;;;;;5.33;56.21;102201.81;5094965;27;46325;-60
2023/01/21 07:46:21;;;;;;;;;26.75;26.75;;;;;5.27;56.27;102188.09;5076176;27;45429;-60
2023/01/21 07:48:47;;;;;;;;;47.25;36.75;;;;;5.26;55.81;102189.84;5077475;27;45559;-59
2023/01/21 07:51:12;;;;;;;;;41.25;33.75;;;;;5.27;56.00;102196.97;5095765;27;44895;-61
2023/01/21 07:53:38;;;;;;;;;51.25;38.50;;;;;5.28;55.90;102197.88;5096840;27;45536;-60
2023/01/21 07:56:04;;;;;;;;;45.50;37.25;;;;;5.24;55.81;102207.34;5094715;27;45500;-62
2023/01/21 07:58:30;;;;;;;;;40.75;37.50;;;;;5.23;56.01;102213.47;5095488;27;45402;-60
2023/01/21 08:00:55;;;;;;;;;39.50;30.50;;;;;5.12;55.95;102195.88;5099416;27;45334;-59
2023/01/21 08:03:22;;;;;;;;;42.75;37.00;;;;;5.27;56.26;102234.06;5097180;27;46089;-60
2023/01/21 08:05:47;;;;;;;;;37.50;31.25;;;;;5.23;56.45;102212.53;5090708;27;45523;-63
2023/01/21 08:08:12;;;;;;;;;50.50;37.75;;;;;5.30;56.56;102225.44;5095325;27;45880;-61
2023/01/21 08:10:38;;;;;;;;;35.75;31.75;;;;;5.16;55.47;102197.94;5095838;27;45243;-60
2023/01/21 08:13:03;;;;;;;;;41.25;34.25;;;;;5.27;55.55;102231.41;5077369;27;46300;-60
2023/01/21 08:15:28;;;;;;;;;56.75;42.00;;;;;5.21;56.08;102222.09;5062469;27;54587;-62
2023/01/21 08:17:55;;;;;;;;;44.50;31.25;;;;;5.28;55.95;102230.63;5073054;27;47204;-61
2023/01/21 08:20:20;;;;;;;;;46.00;35.00;;;;;5.23;55.85;102212.53;5065374;28;45574;-60
2023/01/21 08:22:46;;;;;;;;;50.75;34.25;;;;;5.30;55.88;102236.94;5054407;28;46220;-59
2023/01/21 08:25:11;;;;;;;;;48.50;36.50;;;;;5.31;56.16;102243.16;5073970;27;45361;-63
2023/01/21 08:27:36;;;;;;;;;58.00;42.25;;;;;5.30;55.41;102236.94;5062517;28;45369;-63
2023/01/21 08:30:02;;;;;;;;;48.25;38.25;;;;;5.30;55.45;102234.28;5073867;27;45390;-59
2023/01/21 08:32:30;;;;;;;;;40.25;36.50;;;;;5.31;55.54;102224.59;5073411;27;45421;-60
2023/01/21 08:34:56;;;;;;;;;46.50;36.00;;;;;5.38;55.87;102250.75;5073976;27;55537;-61
2023/01/21 08:37:22;;;;;;;;;40.75;34.75;;;;;5.19;55.54;102235.25;5072054;27;45524;-64
2023/01/21 08:39:47;;;;;;;;;35.50;26.75;;;;;5.28;55.71;102253.53;5044319;28;45616;-61
2023/01/21 08:42:12;;;;;;;;;62.00;46.00;;;;;5.32;55.40;102261.81;5072836;27;45373;-59
2023/01/21 08:44:38;;;;;;;;;59.00;46.50;;;;;5.37;55.00;102269.19;5073513;27;45408;-61
2023/01/21 08:47:03;;;;;;;;;51.50;37.75;;;;;5.35;55.39;102264.69;5073308;27;45643;-61
2023/01/21 08:49:28;;;;;;;;;43.25;30.75;;;;;5.39;55.19;102273.78;5073233;28;45345;-61
2023/01/21 08:51:54;;;;;;;;;50.75;37.75;;;;;5.19;55.29;102235.25;5070563;28;45390;-62
2023/01/21 08:54:19;;;;;;;;;56.25;43.50;;;;;5.44;54.92;102277.66;5059699;28;45446;-62
2023/01/21 08:56:44;;;;;;;;;71.00;49.25;;;;;5.29;55.94;102247.44;5069873;27;45354;-63
2023/01/21 08:59:10;;;;;;;;;50.00;38.25;;;;;5.39;54.64;102256.97;5067991;27;46032;-63
2023/01/21 09:01:39;;;;;;;;;58.50;40.25;;;;;5.48;55.22;102285.03;5069799;27;45994;-62
2023/01/21 09:04:05;;;;;;;;;52.50;34.75;;;;;5.30;55.18;102247.53;5069983;27;45615;-63
2023/01/21 09:06:31;;;;;;;;;43.00;37.00;;;;;5.46;54.94;102289.31;5068653;27;45628;-62
2023/01/21 09:08:57;;;;;;;;;44.00;38.25;;;;;5.51;55.50;102286.97;5066944;27;45609;-64
2023/01/21 09:11:23;;;;;;;;;49.75;38.50;;;;;5.53;55.06;102293.34;5061959;27;45512;-61
2023/01/21 09:13:48;;;;;;;;;39.75;35.00;;;;;5.51;54.99;102279.97;5067954;28;45516;-63
2023/01/21 09:16:17;;;;;;;;;61.25;46.50;;;;;5.50;55.21;102291.38;5075778;28;58092;-62
2023/01/21 09:18:42;;;;;;;;;56.75;41.75;;;;;5.55;55.04;102289.06;5070860;27;45551;-63
2023/01/21 09:21:09;;;;;;;;;49.75;38.75;;;;;5.53;54.59;102281.00;5073795;27;49129;-64
2023/01/21 09:23:36;;;;;;;;;50.00;40.75;;;;;5.54;54.57;102296.09;5071537;28;45617;-63
2023/01/21 09:26:11;;;;;;;;;42.50;34.75;;;;;5.53;54.75;102296.91;5074700;27;45273;-62
2023/01/21 09:28:38;;;;;;;;;45.50;36.00;;;;;5.45;54.76;102279.53;5076606;27;45328;-63
2023/01/21 09:31:07;;;;;;;;;46.50;37.50;;;;;5.58;54.80;102313.13;5075468;28;45510;-63
2023/01/21 09:33:35;;;;;;;;;51.50;36.00;;;;;5.60;54.79;102324.75;5076247;27;45377;-62
2023/01/21 09:36:03;;;;;;;;;47.00;36.00;;;;;5.65;54.46;102322.44;5074775;27;45443;-63
2023/01/21 09:38:29;;;;;;;;;41.50;34.00;;;;;5.66;54.23;102329.56;5075047;27;45404;-61
2023/01/21 09:41:03;;;;;;;;;53.50;39.50;;;;;5.59;54.05;102322.00;5074101;27;46385;-61
2023/01/21 09:43:37;;;;;;;;;52.00;37.50;;;;;5.60;54.02;102332.72;5074393;27;45588;-63
2023/01/21 09:46:06;;;;;;;;;48.75;32.50;;;;;5.55;54.31;102336.78;5069271;27;45756;-63
2023/01/21 09:48:38;;;;;;;;;50.00;39.00;;;;;5.45;54.01;102342.22;5073120;27;45433;-63
2023/01/21 09:51:12;;;;;;;;;61.00;45.75;;;;;5.56;54.51;102353.59;5074913;28;45286;-62
2023/01/21 09:53:50;;;;;;;;;51.75;43.00;;;;;5.59;54.31;102348.50;5075706;27;45584;-62
2023/01/21 09:56:49;;;;;;;;;46.00;36.00;;;;;5.53;54.19;102339.31;5074421;27;45338;-60
2023/01/21 09:59:25;;;;;;;;;44.00;35.75;;;;;5.56;53.66;102353.59;5073594;28;45425;-61
2023/01/21 10:01:54;;;;;;;;;57.00;40.25;;;;;5.53;53.92;102349.91;5070580;27;46441;-62
2023/01/21 10:04:30;;;;;;;;;52.50;39.25;;;;;5.63;53.74;102363.84;5072552;28;45840;-61
2023/01/21 10:06:57;;;;;;;;;52.50;40.75;;;;;5.67;54.28;102371.19;5075271;28;45438;-62
2023/01/21 10:09:23;;;;;;;;;55.00;36.00;;;;;5.68;54.02;102395.19;5074232;28;45518;-61
2023/01/21 10:12:07;;;;;;;;;48.50;36.25;;;;;5.79;53.80;102389.72;5069524;27;45279;-63
2023/01/21 10:15:03;;;;;;;;;47.75;40.25;;;;;5.86;53.73;102392.94;5069857;28;45509;-62
2023/01/21 10:17:59;;;;;;;;;58.50;41.00;;;;;5.83;53.03;102386.50;5074106;28;45576;-62
2023/01/21 10:20:27;;;;;;;;;51.75;40.50;;;;;5.92;53.62;102387.13;5069854;28;45533;-62
2023/01/21 10:23:11;;;;;;;;;57.00;43.75;;;;;5.99;52.92;102399.13;5075958;27;46180;-63
2023/01/21 10:25:41;;;;;;;;;56.25;41.00;;;;;5.88;53.46;102358.56;5076443;28;45435;-63
2023/01/21 10:28:19;;;;;;;;;62.25;42.00;;;;;6.06;52.54;102399.69;5075145;27;45423;-63
2023/01/21 10:30:49;;;;;;;;;60.75;43.00;;;;;6.15;52.66;102403.81;5076700;27;45303;-62
2023/01/21 10:33:21;;;;;;;;;56.25;44.50;;;;;6.17;52.73;102411.09;5075658;27;45989;-61
2023/01/21 10:36:25;;;;;;;;;47.75;35.75;;;;;6.27;51.59;102407.38;5073188;27;45768;-64
2023/01/21 10:39:14;;;;;;;;;45.50;38.00;;;;;6.31;52.31;102388.16;5012578;28;45545;-62
2023/01/21 10:41:57;;;;;;;;;63.75;40.25;;;;;6.41;52.41;102395.03;5066258;28;45350;-62
2023/01/21 10:45:00;;;;;;;;;51.00;36.75;;;;;6.49;51.69;102388.53;5077131;27;45546;-66
2023/01/21 10:47:46;;;;;;;;;56.25;42.50;;;;;6.59;51.42;102374.16;5077869;28;45365;-62
2023/01/21 10:50:39;;;;;;;;;46.25;37.00;;;;;6.68;51.34;102385.38;5081681;27;45474;-64
2023/01/21 10:53:07;;;;;;;;;43.75;36.75;;;;;6.71;51.27;102395.31;5074043;27;45376;-61
2023/01/21 10:55:54;;;;;;;;;46.75;37.00;;;;;6.70;50.53;102388.16;5072601;28;45320;-61
2023/01/21 10:58:39;;;;;;;;;59.50;44.75;;;;;6.66;50.97;102387.03;5071582;28;45382;-61
2023/01/21 11:01:12;;;;;;;;;51.75;37.50;;;;;6.69;51.43;102373.97;5073811;28;45458;-61
2023/01/21 11:03:54;;;;;;;;;43.50;37.25;;;;;6.76;50.72;102384.19;5075221;27;45392;-61
2023/01/21 11:06:22;;;;;;;;;57.75;38.50;;;;;6.54;50.28;102354.34;5075317;28;46383;-62
2023/01/21 11:08:53;;;;;;;;;47.00;35.25;;;;;6.74;50.43;102385.81;5068005;27;45406;-62
2023/01/21 11:11:25;;;;;;;;;61.50;46.00;;;;;6.82;50.55;102394.31;5074551;27;45279;-63
2023/01/21 11:13:52;;;;;;;;;42.25;32.50;;;;;6.83;50.11;102413.03;5091805;27;45452;-63
2023/01/21 11:16:50;;;;;;;;;40.00;34.75;;;;;6.82;50.06;102402.28;5093841;27;46395;-64
2023/01/21 11:19:22;;;;;;;;;33.25;29.25;;;;;6.86;49.83;102409.63;5056991;27;45540;-61
2023/01/21 11:22:15;;;;;;;;;28.75;22.75;;;;;6.83;49.96;102409.44;5094565;27;45460;-61
2023/01/21 11:24:43;;;;;;;;;25.75;21.50;;;;;6.88;49.66;102408.03;5095866;27;45326;-62
2023/01/21 11:27:38;;;;;;;;;35.50;30.25;;;;;6.92;49.70;102406.50;5095077;27;46282;-63
2023/01/21 11:30:05;;;;;;;;;38.00;29.50;;;;;6.85;49.63;102399.84;5078893;27;45555;-63
2023/01/21 11:32:31;;;;;;;;;42.25;29.75;;;;;7.00;49.49;102418.56;5091650;27;44861;-61
2023/01/21 11:35:08;;;;;;;;;46.00;37.25;;;;;6.96;49.61;102397.91;5096288;27;45329;-64